createdAt,value
2023-07-08T00:01:21.838Z,4.68
2023-07-08T00:03:49.393Z,4.30
2023-07-08T00:06:21.786Z,4.28
2023-07-08T00:08:49.017Z,4.47
2023-07-08T00:11:16.994Z,4.65
2023-07-08T00:13:44.248Z,4.38
2023-07-08T00:16:15.653Z,4.53
2023-07-08T00:18:43.147Z,4.22
2023-07-08T00:21:16.281Z,4.45
2023-07-08T00:23:47.952Z,4.85
2023-07-08T00:26:25.205Z,4.53
2023-07-08T00:28:52.545Z,5.10
2023-07-08T00:31:24.884Z,4.13
2023-07-08T00:33:53.750Z,4.78
2023-07-08T00:36:20.951Z,4.53
2023-07-08T00:38:48.179Z,4.82
2023-07-08T00:41:18.379Z,4.63
2023-07-08T00:43:50.941Z,4.70
2023-07-08T00:46:30.569Z,4.30
2023-07-08T00:49:01.973Z,3.88
2023-07-08T00:51:29.347Z,5.13
2023-07-08T00:53:56.543Z,5.50
2023-07-08T00:56:28.362Z,7.78
2023-07-08T00:58:59.463Z,4.75
2023-07-08T01:01:27.728Z,4.75
2023-07-08T01:04:02.402Z,5.03
2023-07-08T01:06:32.676Z,4.50
2023-07-08T01:09:03.917Z,3.90
2023-07-08T01:11:31.398Z,5.15
2023-07-08T01:13:59.596Z,5.03
2023-07-08T01:16:27.115Z,4.32
2023-07-08T01:18:54.437Z,4.32
2023-07-08T01:21:47.988Z,5.82
2023-07-08T01:24:15.830Z,5.03
2023-07-08T01:26:45.148Z,3.95
2023-07-08T01:29:12.892Z,5.03
2023-07-08T01:31:40.609Z,4.38
2023-07-08T01:34:10.388Z,4.18
2023-07-08T01:36:43.636Z,4.22
2023-07-08T01:39:13.778Z,4.63
2023-07-08T01:41:40.903Z,5.05
2023-07-08T01:44:20.878Z,4.20
2023-07-08T01:46:48.085Z,5.35
2023-07-08T01:49:15.314Z,3.90
2023-07-08T01:51:42.550Z,4.25
2023-07-08T01:54:09.834Z,4.35
2023-07-08T01:56:37.025Z,3.97
2023-07-08T01:59:04.233Z,6.68
2023-07-08T02:01:31.428Z,5.65
2023-07-08T02:03:58.672Z,4.13
2023-07-08T02:06:25.861Z,4.35
2023-07-08T02:08:53.140Z,4.57
2023-07-08T02:11:20.336Z,3.92
2023-07-08T02:13:47.625Z,4.57
2023-07-08T02:16:14.974Z,4.80
2023-07-08T02:18:42.217Z,3.58
2023-07-08T02:21:10.113Z,4.53
2023-07-08T02:23:37.273Z,3.95
2023-07-08T02:26:04.484Z,4.80
2023-07-08T02:28:31.653Z,4.07
2023-07-08T02:31:03.286Z,5.30
2023-07-08T02:33:34.188Z,4.32
2023-07-08T02:36:02.082Z,4.13
2023-07-08T02:38:29.370Z,4.07
2023-07-08T02:40:56.578Z,5.50
2023-07-08T02:43:23.754Z,4.10
2023-07-08T02:45:54.197Z,3.97
2023-07-08T02:48:21.757Z,4.63
2023-07-08T02:50:49.035Z,4.07
2023-07-08T02:53:16.230Z,4.60
2023-07-08T02:55:43.890Z,4.25
2023-07-08T02:58:11.419Z,5.85
2023-07-08T03:00:38.815Z,4.20
2023-07-08T03:03:06.193Z,4.20
2023-07-08T03:05:33.990Z,4.78
2023-07-08T03:08:01.324Z,4.90
2023-07-08T03:10:28.543Z,4.45
2023-07-08T03:12:55.760Z,3.97
2023-07-08T03:15:22.944Z,5.20
2023-07-08T03:17:50.174Z,5.05
2023-07-08T03:20:18.459Z,4.90
2023-07-08T03:22:48.502Z,8.93
2023-07-08T03:25:15.751Z,4.32
2023-07-08T03:27:44.444Z,4.38
2023-07-08T03:30:11.899Z,5.63
2023-07-08T03:32:39.149Z,3.90
2023-07-08T03:35:06.828Z,4.68
2023-07-08T03:37:34.011Z,4.65
2023-07-08T03:40:01.221Z,4.50
2023-07-08T03:42:28.453Z,4.90
2023-07-08T03:44:55.655Z,4.32
2023-07-08T03:47:23.044Z,4.30
2023-07-08T03:49:50.413Z,4.40
2023-07-08T03:52:18.300Z,4.60
2023-07-08T03:54:45.898Z,5.00
2023-07-08T03:57:13.092Z,4.82
2023-07-08T03:59:40.321Z,4.25
2023-07-08T04:02:07.522Z,4.80
2023-07-08T04:04:36.358Z,6.10
2023-07-08T04:07:03.539Z,4.70
2023-07-08T04:09:30.711Z,4.70
2023-07-08T04:11:59.008Z,5.45
2023-07-08T04:14:26.226Z,5.13
2023-07-08T04:16:54.896Z,5.57
2023-07-08T04:19:23.844Z,4.55
2023-07-08T04:21:51.354Z,4.47
2023-07-08T04:24:19.163Z,5.07
2023-07-08T04:26:48.669Z,4.18
2023-07-08T04:29:17.290Z,4.65
2023-07-08T04:31:44.944Z,4.45
2023-07-08T04:34:12.153Z,4.22
2023-07-08T04:36:39.689Z,4.25
2023-07-08T04:39:07.701Z,4.50
2023-07-08T04:41:35.149Z,4.40
2023-07-08T04:44:03.370Z,5.70
2023-07-08T04:46:38.299Z,5.68
2023-07-08T04:49:06.881Z,4.75
2023-07-08T04:51:34.658Z,4.80
2023-07-08T04:54:01.909Z,5.93
2023-07-08T04:56:42.723Z,4.82
2023-07-08T04:59:10.760Z,4.57
2023-07-08T05:01:38.236Z,5.00
2023-07-08T05:04:08.915Z,4.68
2023-07-08T05:06:36.345Z,4.53
2023-07-08T05:09:04.289Z,4.10
2023-07-08T05:11:34.384Z,4.70
2023-07-08T05:14:02.414Z,4.80
2023-07-08T05:16:30.106Z,4.40
2023-07-08T05:18:57.442Z,5.00
2023-07-08T05:21:25.630Z,4.57
2023-07-08T05:23:53.042Z,4.88
2023-07-08T05:26:20.543Z,5.05
2023-07-08T05:28:47.758Z,6.10
2023-07-08T05:31:15.034Z,4.80
2023-07-08T05:33:42.314Z,4.78
2023-07-08T05:36:09.503Z,5.38
2023-07-08T05:38:36.763Z,5.95
2023-07-08T05:41:03.960Z,5.90
2023-07-08T05:43:31.361Z,6.55
2023-07-08T05:46:11.116Z,9.07
2023-07-08T05:48:39.202Z,9.18
2023-07-08T05:51:06.465Z,7.03
2023-07-08T05:53:33.790Z,7.68
2023-07-08T05:56:01.214Z,8.65
2023-07-08T05:58:28.446Z,6.13
2023-07-08T06:01:00.226Z,6.65
2023-07-08T06:03:28.053Z,8.70
2023-07-08T06:05:55.456Z,5.78
2023-07-08T06:08:23.824Z,7.57
2023-07-08T06:10:51.346Z,8.80
2023-07-08T06:13:18.701Z,8.32
2023-07-08T06:15:45.952Z,7.70
2023-07-08T06:18:13.210Z,6.90
2023-07-08T06:20:40.407Z,5.97
2023-07-08T06:23:07.637Z,6.07
2023-07-08T06:25:35.306Z,6.75
2023-07-08T06:28:02.559Z,7.95
2023-07-08T06:30:29.819Z,9.32
2023-07-08T06:32:58.977Z,8.02
2023-07-08T06:35:27.674Z,7.65
2023-07-08T06:37:54.876Z,11.35
2023-07-08T06:40:22.086Z,8.23
2023-07-08T06:42:49.424Z,8.70
2023-07-08T06:45:16.741Z,7.93
2023-07-08T06:47:44.066Z,7.68
2023-07-08T06:50:11.392Z,9.27
2023-07-08T06:52:38.657Z,7.00
2023-07-08T06:55:09.600Z,7.00
2023-07-08T06:57:39.034Z,8.88
2023-07-08T07:00:09.973Z,6.30
2023-07-08T07:02:38.094Z,7.47
2023-07-08T07:05:05.565Z,7.07
2023-07-08T07:07:32.901Z,6.80
2023-07-08T07:10:00.133Z,18.02
2023-07-08T07:12:28.050Z,27.52
2023-07-08T07:14:55.337Z,31.13
2023-07-08T07:17:23.759Z,23.67
2023-07-08T07:19:50.992Z,17.67
2023-07-08T07:22:18.161Z,16.38
2023-07-08T07:24:45.413Z,14.27
2023-07-08T07:27:12.744Z,13.00
2023-07-08T07:29:50.199Z,11.32
2023-07-08T07:32:18.267Z,11.00
2023-07-08T07:34:48.079Z,10.68
2023-07-08T07:37:15.787Z,11.32
2023-07-08T07:39:43.363Z,8.75
2023-07-08T07:42:11.030Z,9.02
2023-07-08T07:44:40.697Z,9.57
2023-07-08T07:47:08.596Z,11.88
2023-07-08T07:49:35.937Z,12.43
2023-07-08T07:52:03.356Z,12.43
2023-07-08T07:54:30.613Z,12.95
2023-07-08T07:56:57.788Z,12.88
2023-07-08T07:59:25.059Z,13.63
2023-07-08T08:01:52.341Z,11.82
2023-07-08T08:04:19.562Z,10.23
2023-07-08T08:06:46.836Z,10.82
2023-07-08T08:09:14.102Z,10.52
2023-07-08T08:11:41.317Z,8.27
2023-07-08T08:14:08.682Z,7.07
2023-07-08T08:16:36.155Z,8.02
2023-07-08T08:19:04.160Z,6.93
2023-07-08T08:21:32.271Z,6.70
2023-07-08T08:24:01.387Z,7.28
2023-07-08T08:26:29.650Z,6.43
2023-07-08T08:28:57.387Z,5.60
2023-07-08T08:31:24.640Z,6.78
2023-07-08T08:33:53.662Z,6.45
2023-07-08T08:36:22.030Z,6.20
2023-07-08T08:38:49.378Z,5.93
2023-07-08T08:41:21.139Z,7.07
2023-07-08T08:43:50.043Z,8.45
2023-07-08T08:46:20.403Z,5.88
2023-07-08T08:49:07.913Z,6.05
2023-07-08T08:51:35.278Z,5.78
2023-07-08T08:54:02.695Z,5.45
2023-07-08T08:56:31.359Z,5.85
2023-07-08T08:59:01.350Z,6.07
2023-07-08T09:01:28.716Z,6.00
2023-07-08T09:04:04.944Z,5.70
2023-07-08T09:06:34.075Z,6.03
2023-07-08T09:09:06.030Z,5.88
2023-07-08T09:11:36.304Z,6.22
2023-07-08T09:14:03.564Z,7.30
2023-07-08T09:16:49.529Z,5.82
2023-07-08T09:21:43.914Z,7.30
2023-07-08T09:24:15.664Z,6.10
2023-07-08T09:26:43.262Z,7.28
2023-07-08T09:29:11.238Z,6.07
2023-07-08T09:31:39.882Z,8.27
2023-07-08T09:34:07.101Z,6.03
2023-07-08T09:36:34.399Z,6.57
2023-07-08T09:39:03.826Z,6.07
2023-07-08T09:41:35.049Z,5.70
2023-07-08T09:44:15.299Z,5.82
2023-07-08T09:46:42.755Z,6.07
2023-07-08T09:49:24.193Z,7.15
2023-07-08T09:51:52.405Z,8.13
2023-07-08T09:54:20.564Z,6.43
2023-07-08T09:56:52.965Z,7.53
2023-07-08T09:59:31.608Z,5.15
2023-07-08T10:02:01.704Z,5.72
2023-07-08T10:04:29.017Z,5.55
2023-07-08T10:06:56.334Z,6.32
2023-07-08T10:09:25.616Z,7.95
2023-07-08T10:11:58.183Z,5.65
2023-07-08T10:14:36.425Z,5.22
2023-07-08T10:17:03.840Z,7.47
2023-07-08T10:19:33.858Z,5.10
2023-07-08T10:22:04.512Z,5.15
2023-07-08T10:24:31.684Z,4.82
2023-07-08T10:27:19.164Z,4.78
2023-07-08T10:29:52.098Z,5.53
2023-07-08T10:32:25.503Z,5.18
2023-07-08T10:34:59.746Z,6.63
2023-07-08T10:37:36.427Z,4.97
2023-07-08T10:40:27.396Z,5.10
2023-07-08T10:43:07.064Z,6.63
2023-07-08T10:45:34.253Z,5.55
2023-07-08T10:48:10.178Z,6.05
2023-07-08T10:50:55.868Z,5.30
2023-07-08T10:53:32.210Z,5.72
2023-07-08T10:56:12.996Z,5.53
2023-07-08T10:58:43.229Z,5.63
2023-07-08T11:01:10.447Z,4.85
2023-07-08T11:03:44.611Z,5.38
2023-07-08T11:06:16.840Z,5.20
2023-07-08T11:08:44.112Z,5.95
2023-07-08T11:11:17.233Z,5.40
2023-07-08T11:13:50.367Z,5.07
2023-07-08T11:16:29.508Z,5.55
2023-07-08T11:19:01.701Z,5.60
2023-07-08T11:21:36.246Z,5.55
2023-07-08T11:24:21.600Z,5.13
2023-07-08T11:26:56.288Z,5.03
2023-07-08T11:29:33.929Z,5.15
2023-07-08T11:32:01.435Z,4.60
2023-07-08T11:34:29.489Z,5.38
2023-07-08T11:36:57.640Z,4.75
2023-07-08T11:39:30.828Z,5.55
2023-07-08T11:42:17.049Z,4.43
2023-07-08T11:47:20.837Z,4.40
2023-07-08T11:49:49.496Z,4.43
2023-07-08T11:52:19.446Z,5.68
2023-07-08T11:54:47.398Z,4.47
2023-07-08T11:57:19.607Z,4.45
2023-07-08T11:59:48.131Z,3.92
2023-07-08T12:02:19.394Z,4.32
2023-07-08T12:05:14.513Z,4.53
2023-07-08T12:07:49.295Z,4.60
2023-07-08T12:10:23.942Z,4.45
2023-07-08T12:12:51.260Z,4.50
2023-07-08T12:15:18.415Z,4.20
2023-07-08T12:17:45.680Z,4.93
2023-07-08T12:20:23.251Z,4.40
2023-07-08T12:22:53.104Z,4.38
2023-07-08T12:25:24.129Z,4.30
2023-07-08T12:27:51.321Z,4.15
2023-07-08T12:30:18.694Z,4.50
2023-07-08T12:32:46.915Z,4.35
2023-07-08T12:35:29.858Z,4.85
2023-07-08T12:38:20.636Z,5.13
2023-07-08T12:40:47.934Z,4.50
2023-07-08T12:43:16.162Z,3.70
2023-07-08T12:45:43.359Z,4.57
2023-07-08T12:48:11.280Z,4.88
2023-07-08T12:50:38.951Z,5.38
2023-07-08T12:53:10.738Z,5.78
2023-07-08T12:55:42.125Z,5.13
2023-07-08T12:58:15.510Z,5.72
2023-07-08T13:00:43.218Z,7.32
2023-07-08T13:03:15.360Z,6.93
2023-07-08T13:05:43.266Z,6.05
2023-07-08T13:08:13.559Z,8.73
2023-07-08T13:10:42.245Z,6.07
2023-07-08T13:13:11.002Z,6.72
2023-07-08T13:15:40.969Z,6.40
2023-07-08T13:18:21.558Z,6.47
2023-07-08T13:20:51.984Z,6.10
2023-07-08T13:23:20.466Z,5.80
2023-07-08T13:25:49.432Z,5.93
2023-07-08T13:28:16.729Z,6.22
2023-07-08T13:30:52.374Z,5.75
2023-07-08T13:33:20.122Z,6.15
2023-07-08T13:35:47.914Z,5.80
2023-07-08T13:38:23.230Z,4.93
2023-07-08T13:40:57.891Z,5.55
2023-07-08T13:43:26.773Z,5.60
2023-07-08T13:45:54.048Z,6.00
2023-07-08T13:48:40.716Z,5.75
2023-07-08T13:51:08.049Z,7.63
2023-07-08T13:53:43.800Z,5.90
2023-07-08T13:56:24.067Z,5.20
2023-07-08T13:58:52.595Z,6.38
2023-07-08T14:01:24.021Z,5.80
2023-07-08T14:03:52.016Z,5.28
2023-07-08T14:06:20.407Z,5.72
2023-07-08T14:08:47.620Z,5.75
2023-07-08T14:11:14.815Z,5.63
2023-07-08T14:13:42.015Z,5.95
2023-07-08T14:16:26.510Z,8.52
2023-07-08T14:18:53.813Z,6.68
2023-07-08T14:21:20.997Z,6.28
2023-07-08T14:23:48.220Z,6.53
2023-07-08T14:26:15.624Z,6.03
2023-07-08T14:28:42.827Z,6.50
2023-07-08T14:31:14.011Z,6.25
2023-07-08T14:33:41.219Z,7.43
2023-07-08T14:36:12.187Z,6.20
2023-07-08T14:38:39.541Z,6.53
2023-07-08T14:41:07.011Z,6.53
2023-07-08T14:43:35.198Z,8.00
2023-07-08T14:46:05.130Z,6.80
2023-07-08T14:48:33.339Z,6.65
2023-07-08T14:51:01.009Z,7.97
2023-07-08T14:53:28.563Z,11.88
2023-07-08T14:55:57.186Z,6.32
2023-07-08T14:58:26.827Z,7.80
2023-07-08T15:00:57.569Z,7.40
2023-07-08T15:03:25.538Z,6.13
2023-07-08T15:05:53.136Z,6.40
2023-07-08T15:08:20.466Z,5.47
2023-07-08T15:10:51.882Z,5.43
2023-07-08T15:13:20.098Z,5.63
2023-07-08T15:15:47.435Z,5.40
2023-07-08T15:18:19.319Z,7.15
2023-07-08T15:20:47.058Z,10.05
2023-07-08T15:23:14.307Z,6.30
2023-07-08T15:25:45.763Z,4.90
2023-07-08T15:28:20.152Z,5.47
2023-07-08T15:30:47.347Z,6.63
2023-07-08T15:33:18.096Z,5.15
2023-07-08T15:35:45.722Z,6.10
2023-07-08T15:38:13.040Z,5.35
2023-07-08T15:40:40.670Z,6.07
2023-07-08T15:43:13.122Z,5.00
2023-07-08T15:45:41.358Z,5.63
2023-07-08T15:48:15.873Z,5.97
2023-07-08T15:50:43.313Z,7.90
2023-07-08T15:53:10.827Z,5.95
2023-07-08T15:55:40.342Z,4.82
2023-07-08T15:58:08.958Z,4.90
2023-07-08T16:00:38.176Z,6.50
2023-07-08T16:03:07.944Z,5.05
2023-07-08T16:05:37.012Z,4.80
2023-07-08T16:08:04.624Z,5.63
2023-07-08T16:10:32.241Z,9.82
2023-07-08T16:13:00.441Z,5.00
2023-07-08T16:15:31.865Z,5.35
2023-07-08T16:17:59.514Z,5.40
2023-07-08T16:20:27.725Z,4.60
2023-07-08T16:22:54.923Z,5.55
2023-07-08T16:25:37.473Z,4.28
2023-07-08T16:28:05.472Z,6.13
2023-07-08T16:30:32.744Z,4.90
2023-07-08T16:33:00.010Z,5.53
2023-07-08T16:35:27.319Z,4.88
2023-07-08T16:37:55.651Z,5.25
2023-07-08T16:40:24.908Z,4.75
2023-07-08T16:42:53.828Z,4.90
2023-07-08T16:45:21.985Z,4.93
2023-07-08T16:47:49.680Z,4.82
2023-07-08T16:50:18.033Z,4.63
2023-07-08T16:52:45.369Z,5.35
2023-07-08T16:55:16.779Z,4.45
2023-07-08T16:57:44.465Z,5.03
2023-07-08T17:00:13.946Z,4.57
2023-07-08T17:02:42.081Z,5.05
2023-07-08T17:05:20.767Z,5.15
2023-07-08T17:07:48.091Z,4.85
2023-07-08T17:10:15.375Z,5.35
2023-07-08T17:12:42.598Z,4.97
2023-07-08T17:15:13.270Z,6.55
2023-07-08T17:17:44.913Z,5.10
2023-07-08T17:20:17.625Z,4.60
2023-07-08T17:22:45.578Z,5.40
2023-07-08T17:25:16.913Z,11.93
2023-07-08T17:27:44.847Z,5.50
2023-07-08T17:30:13.594Z,5.07
2023-07-08T17:32:41.648Z,4.90
2023-07-08T17:35:14.125Z,4.63
2023-07-08T17:37:42.717Z,4.25
2023-07-08T17:40:16.788Z,4.63
2023-07-08T17:42:44.803Z,5.10
2023-07-08T17:45:12.871Z,4.72
2023-07-08T17:47:40.610Z,5.20
2023-07-08T17:50:26.570Z,5.10
2023-07-08T17:55:21.460Z,5.03
2023-07-08T17:57:49.700Z,4.82
2023-07-08T18:00:18.872Z,4.70
2023-07-08T18:02:46.125Z,4.57
2023-07-08T18:05:23.991Z,4.78
2023-07-08T18:07:52.729Z,5.30
2023-07-08T18:10:20.940Z,4.53
2023-07-08T18:12:48.859Z,4.15
2023-07-08T18:15:23.363Z,4.05
2023-07-08T18:17:51.279Z,4.50
2023-07-08T18:20:18.769Z,4.57
2023-07-08T18:22:52.997Z,4.55
2023-07-08T18:25:21.600Z,5.80
2023-07-08T18:27:49.041Z,5.90
2023-07-08T18:30:18.351Z,7.05
2023-07-08T18:32:47.646Z,6.43
2023-07-08T18:35:16.486Z,5.55
2023-07-08T18:37:44.366Z,6.03
2023-07-08T18:40:13.521Z,7.05
2023-07-08T18:42:41.186Z,7.15
2023-07-08T18:45:14.082Z,7.20
2023-07-08T18:47:41.525Z,6.43
2023-07-08T18:50:10.000Z,8.15
2023-07-08T18:52:37.255Z,6.07
2023-07-08T18:55:04.620Z,7.10
2023-07-08T18:57:33.369Z,6.95
2023-07-08T19:00:00.630Z,8.63
2023-07-08T19:02:27.992Z,7.38
2023-07-08T19:04:55.190Z,6.28
2023-07-08T19:07:22.372Z,6.13
2023-07-08T19:09:49.550Z,6.22
2023-07-08T19:12:17.120Z,6.75
2023-07-08T19:14:44.299Z,6.45
2023-07-08T19:17:11.524Z,6.95
2023-07-08T19:19:38.782Z,6.97
2023-07-08T19:22:06.381Z,6.43
2023-07-08T19:24:38.362Z,8.93
2023-07-08T19:27:06.025Z,9.23
2023-07-08T19:29:33.192Z,8.45
2023-07-08T19:32:00.397Z,8.85
2023-07-08T19:34:27.627Z,10.88
2023-07-08T19:36:56.000Z,10.50
2023-07-08T19:39:23.229Z,9.68
2023-07-08T19:41:50.499Z,7.40
2023-07-08T19:44:21.945Z,7.95
2023-07-08T19:46:49.180Z,6.85
2023-07-08T19:49:16.426Z,8.45
2023-07-08T19:51:43.788Z,7.68
2023-07-08T19:54:10.968Z,7.03
2023-07-08T19:56:39.224Z,8.05
2023-07-08T19:59:06.392Z,7.70
2023-07-08T20:01:33.778Z,6.22
2023-07-08T20:04:02.929Z,6.95
2023-07-08T20:06:30.198Z,7.10
2023-07-08T20:08:59.150Z,6.15
2023-07-08T20:11:26.568Z,8.40
2023-07-08T20:13:53.837Z,7.80
2023-07-08T20:16:23.193Z,5.65
2023-07-08T20:18:52.591Z,7.47
2023-07-08T20:21:20.126Z,6.55
2023-07-08T20:23:47.384Z,6.57
2023-07-08T20:26:17.692Z,5.70
2023-07-08T20:28:47.337Z,8.00
2023-07-08T20:31:14.913Z,6.40
2023-07-08T20:33:42.239Z,6.65
2023-07-08T20:36:13.978Z,6.40
2023-07-08T20:38:41.159Z,7.43
2023-07-08T20:41:08.390Z,7.18
2023-07-08T20:43:35.567Z,7.15
2023-07-08T20:46:06.349Z,7.68
2023-07-08T20:48:34.508Z,7.85
2023-07-08T20:51:01.830Z,9.07
2023-07-08T20:53:29.014Z,7.15
2023-07-08T20:55:56.199Z,6.20
2023-07-08T20:58:24.905Z,7.07
2023-07-08T21:00:52.065Z,10.35
2023-07-08T21:03:20.819Z,6.07
2023-07-08T21:05:49.699Z,6.53
2023-07-08T21:08:21.637Z,7.45
2023-07-08T21:10:48.888Z,8.40
2023-07-08T21:13:16.080Z,6.90
2023-07-08T21:15:43.491Z,7.00
2023-07-08T21:18:13.416Z,5.93
2023-07-08T21:20:40.742Z,6.53
2023-07-08T21:23:09.643Z,5.88
2023-07-08T21:25:37.301Z,7.25
2023-07-08T21:28:05.575Z,6.18
2023-07-08T21:30:32.846Z,7.72
2023-07-08T21:33:00.327Z,5.70
2023-07-08T21:35:29.020Z,7.63
2023-07-08T21:38:05.195Z,5.78
2023-07-08T21:41:01.742Z,5.63
2023-07-08T21:43:30.212Z,7.22
2023-07-08T21:46:00.465Z,6.20
2023-07-08T21:48:27.866Z,6.15
2023-07-08T21:50:56.339Z,7.00
2023-07-08T21:53:28.451Z,6.10
2023-07-08T21:55:55.899Z,5.90
2023-07-08T21:58:23.593Z,5.85
2023-07-08T22:00:51.551Z,7.00
2023-07-08T22:03:20.436Z,5.40
2023-07-08T22:05:48.089Z,5.45
2023-07-08T22:08:25.718Z,6.50
2023-07-08T22:10:54.609Z,6.20
2023-07-08T22:13:24.511Z,7.47
2023-07-08T22:15:53.825Z,5.85
2023-07-08T22:18:23.426Z,5.47
2023-07-08T22:20:58.028Z,6.10
2023-07-08T22:23:26.197Z,6.68
2023-07-08T22:25:53.495Z,5.65
2023-07-08T22:28:20.727Z,5.55
2023-07-08T22:30:48.664Z,6.13
2023-07-08T22:33:17.420Z,5.80
2023-07-08T22:35:45.290Z,5.22
2023-07-08T22:38:12.899Z,5.80
2023-07-08T22:40:44.254Z,5.45
2023-07-08T22:43:17.659Z,5.88
2023-07-08T22:45:44.972Z,7.43
2023-07-08T22:48:12.611Z,6.38
2023-07-08T22:50:44.887Z,5.63
2023-07-08T22:53:18.878Z,6.88
2023-07-08T22:55:47.163Z,5.35
2023-07-08T22:58:20.221Z,6.38
2023-07-08T23:00:47.400Z,6.10
2023-07-08T23:03:14.695Z,4.85
2023-07-08T23:05:45.448Z,5.00
2023-07-08T23:08:17.378Z,4.72
2023-07-08T23:10:44.687Z,5.88
2023-07-08T23:13:19.539Z,7.90
2023-07-08T23:15:47.224Z,5.75
2023-07-08T23:18:18.822Z,6.70
2023-07-08T23:20:46.905Z,5.30
2023-07-08T23:23:14.536Z,5.40
2023-07-08T23:25:42.731Z,6.03
2023-07-08T23:28:12.371Z,5.75
2023-07-08T23:30:39.502Z,6.10
2023-07-08T23:33:06.694Z,5.15
2023-07-08T23:35:34.139Z,6.00
2023-07-08T23:38:01.560Z,5.05
2023-07-08T23:40:28.763Z,6.35
2023-07-08T23:42:55.963Z,5.10
2023-07-08T23:45:23.483Z,5.55
2023-07-08T23:47:50.938Z,5.45
2023-07-08T23:50:21.986Z,7.53
2023-07-08T23:52:49.234Z,6.78
2023-07-08T23:55:17.288Z,6.72
2023-07-08T23:57:44.868Z,5.30
